sensor_id;sensor_type;location;lat;lon;timestamp;pressure;altitude;pressure_sealevel;temperature;humidity
3150;BME280;32503;47.748;8.960;2022-12-18T00:02:25;97899.34;;;-1.28;63.53
3150;BME280;32503;47.748;8.960;2022-12-18T00:04:54;97902.00;;;-1.28;63.67
3150;BME280;32503;47.748;8.960;2022-12-18T00:07:21;97901.75;;;-1.26;64.17
3150;BME280;32503;47.748;8.960;2022-12-18T00:09:48;97906.22;;;-1.32;63.76
3150;BME280;32503;47.748;8.960;2022-12-18T00:12:15;97901.44;;;-1.30;64.49
3150;BME280;32503;47.748;8.960;2022-12-18T00:14:45;97901.94;;;-1.33;64.47
3150;BME280;32503;47.748;8.960;2022-12-18T00:17:12;97893.16;;;-1.39;64.67
3150;BME280;32503;47.748;8.960;2022-12-18T00:19:39;97909.84;;;-1.38;64.33
3150;BME280;32503;47.748;8.960;2022-12-18T00:22:07;97887.28;;;-1.41;64.76
3150;BME280;32503;47.748;8.960;2022-12-18T00:24:34;97895.56;;;-1.37;64.61
3150;BME280;32503;47.748;8.960;2022-12-18T00:27:01;97910.44;;;-1.31;65.09
3150;BME280;32503;47.748;8.960;2022-12-18T00:29:28;97916.81;;;-1.32;64.85
3150;BME280;32503;47.748;8.960;2022-12-18T00:31:55;97918.34;;;-1.36;65.03
3150;BME280;32503;47.748;8.960;2022-12-18T00:34:22;97922.13;;;-1.32;65.05
3150;BME280;32503;47.748;8.960;2022-12-18T00:36:49;97916.88;;;-1.27;64.90
3150;BME280;32503;47.748;8.960;2022-12-18T00:39:18;97912.66;;;-1.23;64.68
3150;BME280;32503;47.748;8.960;2022-12-18T00:41:45;97912.38;;;-1.26;64.95
3150;BME280;32503;47.748;8.960;2022-12-18T00:44:29;97911.56;;;-1.27;64.97
3150;BME280;32503;47.748;8.960;2022-12-18T00:46:56;97911.34;;;-1.20;64.98
3150;BME280;32503;47.748;8.960;2022-12-18T00:49:23;97907.94;;;-1.16;64.85
3150;BME280;32503;47.748;8.960;2022-12-18T00:51:50;97912.97;;;-1.19;64.65
3150;BME280;32503;47.748;8.960;2022-12-18T00:54:21;97920.47;;;-1.11;64.52
3150;BME280;32503;47.748;8.960;2022-12-18T00:56:48;97927.91;;;-1.08;64.52
3150;BME280;32503;47.748;8.960;2022-12-18T00:59:16;97920.16;;;-1.15;64.27
3150;BME280;32503;47.748;8.960;2022-12-18T01:01:43;97921.81;;;-1.08;64.35
3150;BME280;32503;47.748;8.960;2022-12-18T01:04:10;97933.78;;;-1.06;64.71
3150;BME280;32503;47.748;8.960;2022-12-18T01:06:37;97931.09;;;-1.11;64.26
3150;BME280;32503;47.748;8.960;2022-12-18T01:09:04;97945.19;;;-1.05;64.37
3150;BME280;32503;47.748;8.960;2022-12-18T01:11:33;97934.09;;;-1.02;64.58
3150;BME280;32503;47.748;8.960;2022-12-18T01:14:00;97937.56;;;-0.97;64.14
3150;BME280;32503;47.748;8.960;2022-12-18T01:16:27;97943.19;;;-0.93;64.62
3150;BME280;32503;47.748;8.960;2022-12-18T01:18:54;97935.16;;;-0.98;64.75
3150;BME280;32503;47.748;8.960;2022-12-18T01:21:23;97912.25;;;-1.09;64.41
3150;BME280;32503;47.748;8.960;2022-12-18T01:23:52;97938.31;;;-1.01;64.49
3150;BME280;32503;47.748;8.960;2022-12-18T01:26:20;97945.78;;;-0.98;64.30
3150;BME280;32503;47.748;8.960;2022-12-18T01:28:48;97951.00;;;-1.08;64.63
3150;BME280;32503;47.748;8.960;2022-12-18T01:31:18;97936.09;;;-1.15;64.66
3150;BME280;32503;47.748;8.960;2022-12-18T01:33:49;97963.72;;;-1.10;65.13
3150;BME280;32503;47.748;8.960;2022-12-18T01:36:19;97957.66;;;-1.06;64.76
3150;BME280;32503;47.748;8.960;2022-12-18T01:38:46;97958.22;;;-1.04;64.73
3150;BME280;32503;47.748;8.960;2022-12-18T01:41:15;97963.00;;;-1.01;64.96
3150;BME280;32503;47.748;8.960;2022-12-18T01:43:56;97951.88;;;-0.98;64.68
3150;BME280;32503;47.748;8.960;2022-12-18T01:46:27;97956.41;;;-0.98;64.80
3150;BME280;32503;47.748;8.960;2022-12-18T01:48:57;97965.94;;;-1.02;65.04
3150;BME280;32503;47.748;8.960;2022-12-18T01:51:27;97960.06;;;-1.04;65.10
3150;BME280;32503;47.748;8.960;2022-12-18T01:53:57;97958.81;;;-0.97;65.03
3150;BME280;32503;47.748;8.960;2022-12-18T01:56:25;97966.53;;;-0.95;64.89
3150;BME280;32503;47.748;8.960;2022-12-18T01:58:57;97976.84;;;-0.99;65.28
3150;BME280;32503;47.748;8.960;2022-12-18T02:01:26;97970.16;;;-1.01;64.98
3150;BME280;32503;47.748;8.960;2022-12-18T02:03:53;97964.66;;;-0.94;64.94
3150;BME280;32503;47.748;8.960;2022-12-18T02:06:26;97957.50;;;-0.94;65.14
3150;BME280;32503;47.748;8.960;2022-12-18T02:09:06;97957.19;;;-0.98;64.94
3150;BME280;32503;47.748;8.960;2022-12-18T02:11:45;97970.31;;;-0.86;64.80
3150;BME280;32503;47.748;8.960;2022-12-18T02:14:28;97948.78;;;-0.89;64.93
3150;BME280;32503;47.748;8.960;2022-12-18T02:17:04;97967.72;;;-0.81;64.74
3150;BME280;32503;47.748;8.960;2022-12-18T02:19:53;97956.53;;;-0.83;64.65
3150;BME280;32503;47.748;8.960;2022-12-18T02:22:35;97955.44;;;-0.87;65.17
3150;BME280;32503;47.748;8.960;2022-12-18T02:25:21;97946.88;;;-0.94;65.17
3150;BME280;32503;47.748;8.960;2022-12-18T02:27:53;97960.69;;;-0.92;65.00
3150;BME280;32503;47.748;8.960;2022-12-18T02:30:23;97946.03;;;-1.00;64.78
3150;BME280;32503;47.748;8.960;2022-12-18T02:32:52;97951.59;;;-1.01;65.44
3150;BME280;32503;47.748;8.960;2022-12-18T02:35:23;97952.97;;;-0.99;65.43
3150;BME280;32503;47.748;8.960;2022-12-18T02:37:55;97955.38;;;-0.92;65.33
3150;BME280;32503;47.748;8.960;2022-12-18T02:40:25;97962.31;;;-0.91;65.22
3150;BME280;32503;47.748;8.960;2022-12-18T02:42:55;97958.59;;;-0.90;65.52
3150;BME280;32503;47.748;8.960;2022-12-18T02:45:22;97960.69;;;-0.92;65.54
3150;BME280;32503;47.748;8.960;2022-12-18T02:47:49;97974.84;;;-0.86;65.37
3150;BME280;32503;47.748;8.960;2022-12-18T02:50:22;97957.00;;;-0.91;65.38
3150;BME280;32503;47.748;8.960;2022-12-18T02:53:01;97969.00;;;-0.83;65.17
3150;BME280;32503;47.748;8.960;2022-12-18T02:55:42;97973.75;;;-0.85;65.05
3150;BME280;32503;47.748;8.960;2022-12-18T02:58:18;97968.69;;;-0.87;65.67
3150;BME280;32503;47.748;8.960;2022-12-18T03:00:53;97972.69;;;-0.89;65.63
3150;BME280;32503;47.748;8.960;2022-12-18T03:03:29;97976.91;;;-0.88;66.00
3150;BME280;32503;47.748;8.960;2022-12-18T03:06:05;97968.69;;;-0.87;65.30
3150;BME280;32503;47.748;8.960;2022-12-18T03:08:37;97990.47;;;-0.90;65.81
3150;BME280;32503;47.748;8.960;2022-12-18T03:11:09;97980.09;;;-0.91;65.86
3150;BME280;32503;47.748;8.960;2022-12-18T03:13:43;97975.53;;;-0.96;65.88
3150;BME280;32503;47.748;8.960;2022-12-18T03:16:16;97974.25;;;-0.93;65.70
3150;BME280;32503;47.748;8.960;2022-12-18T03:18:48;97972.81;;;-1.01;65.80
3150;BME280;32503;47.748;8.960;2022-12-18T03:21:22;97987.75;;;-0.95;66.00
3150;BME280;32503;47.748;8.960;2022-12-18T03:23:52;97986.44;;;-0.92;66.12
3150;BME280;32503;47.748;8.960;2022-12-18T03:26:22;97961.13;;;-1.05;66.42
3150;BME280;32503;47.748;8.960;2022-12-18T03:28:56;97970.72;;;-0.99;66.39
3150;BME280;32503;47.748;8.960;2022-12-18T03:31:26;97961.97;;;-1.00;66.33
3150;BME280;32503;47.748;8.960;2022-12-18T03:33:57;97966.56;;;-0.90;65.85
3150;BME280;32503;47.748;8.960;2022-12-18T03:36:30;97976.13;;;-0.89;65.79
3150;BME280;32503;47.748;8.960;2022-12-18T03:39:00;97976.13;;;-0.89;66.23
3150;BME280;32503;47.748;8.960;2022-12-18T03:41:31;97975.63;;;-0.86;66.34
3150;BME280;32503;47.748;8.960;2022-12-18T03:44:08;97978.28;;;-0.86;65.96
3150;BME280;32503;47.748;8.960;2022-12-18T03:46:48;97975.34;;;-0.89;65.90
3150;BME280;32503;47.748;8.960;2022-12-18T03:49:25;97990.75;;;-0.86;66.17
3150;BME280;32503;47.748;8.960;2022-12-18T03:52:02;97986.25;;;-0.86;65.88
3150;BME280;32503;47.748;8.960;2022-12-18T03:54:31;97987.53;;;-0.88;66.03
3150;BME280;32503;47.748;8.960;2022-12-18T03:57:06;97996.06;;;-0.86;66.32
3150;BME280;32503;47.748;8.960;2022-12-18T03:59:35;97975.28;;;-0.94;66.45
3150;BME280;32503;47.748;8.960;2022-12-18T04:02:05;97979.56;;;-0.88;66.60
3150;BME280;32503;47.748;8.960;2022-12-18T04:04:34;97991.09;;;-0.78;66.40
3150;BME280;32503;47.748;8.960;2022-12-18T04:07:03;97996.41;;;-0.78;66.58
3150;BME280;32503;47.748;8.960;2022-12-18T04:09:32;97986.84;;;-0.79;66.47
3150;BME280;32503;47.748;8.960;2022-12-18T04:12:00;97998.03;;;-0.71;66.71
3150;BME280;32503;47.748;8.960;2022-12-18T04:14:27;98002.88;;;-0.68;66.51
3150;BME280;32503;47.748;8.960;2022-12-18T04:16:56;98001.53;;;-0.66;66.35
3150;BME280;32503;47.748;8.960;2022-12-18T04:19:23;97994.94;;;-0.63;66.13
3150;BME280;32503;47.748;8.960;2022-12-18T04:21:50;98001.84;;;-0.62;66.01
3150;BME280;32503;47.748;8.960;2022-12-18T04:24:17;97999.97;;;-0.67;66.22
3150;BME280;32503;47.748;8.960;2022-12-18T04:26:44;98003.66;;;-0.68;66.17
3150;BME280;32503;47.748;8.960;2022-12-18T04:29:11;98005.78;;;-0.70;66.19
3150;BME280;32503;47.748;8.960;2022-12-18T04:31:38;98013.97;;;-0.71;66.14
3150;BME280;32503;47.748;8.960;2022-12-18T04:34:06;98021.16;;;-0.72;66.34
3150;BME280;32503;47.748;8.960;2022-12-18T04:36:33;98017.13;;;-0.74;66.45
3150;BME280;32503;47.748;8.960;2022-12-18T04:39:00;97996.88;;;-0.86;66.24
3150;BME280;32503;47.748;8.960;2022-12-18T04:41:27;98020.03;;;-0.76;66.35
3150;BME280;32503;47.748;8.960;2022-12-18T04:43:54;98015.00;;;-0.78;66.67
3150;BME280;32503;47.748;8.960;2022-12-18T04:46:21;98012.06;;;-0.76;66.31
3150;BME280;32503;47.748;8.960;2022-12-18T04:48:48;98020.03;;;-0.76;66.60
3150;BME280;32503;47.748;8.960;2022-12-18T04:51:17;98025.06;;;-0.80;66.81
3150;BME280;32503;47.748;8.960;2022-12-18T04:53:44;98025.09;;;-0.74;66.51
3150;BME280;32503;47.748;8.960;2022-12-18T04:56:13;98010.97;;;-0.80;67.07
3150;BME280;32503;47.748;8.960;2022-12-18T04:58:42;98008.81;;;-0.83;66.23
3150;BME280;32503;47.748;8.960;2022-12-18T05:01:11;98006.69;;;-0.86;66.73
3150;BME280;32503;47.748;8.960;2022-12-18T05:03:39;98020.63;;;-0.74;66.65
3150;BME280;32503;47.748;8.960;2022-12-18T05:06:07;98007.84;;;-0.77;66.17
3150;BME280;32503;47.748;8.960;2022-12-18T05:08:35;98016.63;;;-0.71;66.28
3150;BME280;32503;47.748;8.960;2022-12-18T05:11:05;98009.50;;;-0.66;66.15
3150;BME280;32503;47.748;8.960;2022-12-18T05:13:34;98011.06;;;-0.70;65.79
3150;BME280;32503;47.748;8.960;2022-12-18T05:16:02;98006.03;;;-0.71;66.30
3150;BME280;32503;47.748;8.960;2022-12-18T05:18:29;98018.31;;;-0.65;66.12
3150;BME280;32503;47.748;8.960;2022-12-18T05:20:57;98035.81;;;-0.64;66.38
3150;BME280;32503;47.748;8.960;2022-12-18T05:23:24;98038.72;;;-0.66;66.50
3150;BME280;32503;47.748;8.960;2022-12-18T05:25:53;98023.88;;;-0.67;66.32
3150;BME280;32503;47.748;8.960;2022-12-18T05:28:21;98038.97;;;-0.67;65.86
3150;BME280;32503;47.748;8.960;2022-12-18T05:30:50;98047.47;;;-0.70;66.55
3150;BME280;32503;47.748;8.960;2022-12-18T05:33:17;98046.94;;;-0.67;66.41
3150;BME280;32503;47.748;8.960;2022-12-18T05:35:50;98022.41;;;-0.80;66.12
3150;BME280;32503;47.748;8.960;2022-12-18T05:38:17;98050.19;;;-0.65;66.22
3150;BME280;32503;47.748;8.960;2022-12-18T05:40:44;98050.19;;;-0.65;66.11
3150;BME280;32503;47.748;8.960;2022-12-18T05:43:13;98058.16;;;-0.65;65.95
3150;BME280;32503;47.748;8.960;2022-12-18T05:45:40;98054.66;;;-0.66;65.93
3150;BME280;32503;47.748;8.960;2022-12-18T05:48:12;98049.09;;;-0.64;65.83
3150;BME280;32503;47.748;8.960;2022-12-18T05:50:41;98046.75;;;-0.61;65.65
3150;BME280;32503;47.748;8.960;2022-12-18T05:53:09;98047.25;;;-0.64;65.59
3150;BME280;32503;47.748;8.960;2022-12-18T05:55:38;98043.25;;;-0.66;65.46
3150;BME280;32503;47.748;8.960;2022-12-18T05:58:07;98052.81;;;-0.65;65.51
3150;BME280;32503;47.748;8.960;2022-12-18T06:00:39;98033.63;;;-0.72;65.37
3150;BME280;32503;47.748;8.960;2022-12-18T06:03:07;98046.94;;;-0.67;65.47
3150;BME280;32503;47.748;8.960;2022-12-18T06:05:35;98043.25;;;-0.66;65.27
3150;BME280;32503;47.748;8.960;2022-12-18T06:08:03;98042.47;;;-0.67;65.39
3150;BME280;32503;47.748;8.960;2022-12-18T06:10:30;98033.38;;;-0.71;65.40
3150;BME280;32503;47.748;8.960;2022-12-18T06:12:58;98029.91;;;-0.71;65.01
3150;BME280;32503;47.748;8.960;2022-12-18T06:15:25;98039.25;;;-0.69;65.00
3150;BME280;32503;47.748;8.960;2022-12-18T06:17:53;98054.84;;;-0.72;65.58
3150;BME280;32503;47.748;8.960;2022-12-18T06:20:21;98045.06;;;-0.72;65.59
3150;BME280;32503;47.748;8.960;2022-12-18T06:22:48;98047.75;;;-0.67;65.48
3150;BME280;32503;47.748;8.960;2022-12-18T06:25:15;98054.41;;;-0.64;65.52
3150;BME280;32503;47.748;8.960;2022-12-18T06:27:42;98045.84;;;-0.71;65.56
3150;BME280;32503;47.748;8.960;2022-12-18T06:30:11;98028.25;;;-0.83;65.71
3150;BME280;32503;47.748;8.960;2022-12-18T06:32:38;98061.28;;;-0.68;65.82
3150;BME280;32503;47.748;8.960;2022-12-18T06:35:08;98067.69;;;-0.64;65.50
3150;BME280;32503;47.748;8.960;2022-12-18T06:37:35;98067.69;;;-0.64;66.22
3150;BME280;32503;47.748;8.960;2022-12-18T06:40:02;98069.31;;;-0.63;65.99
3150;BME280;32503;47.748;8.960;2022-12-18T06:42:29;98072.75;;;-0.63;66.13
3150;BME280;32503;47.748;8.960;2022-12-18T06:44:56;98078.63;;;-0.61;65.99
3150;BME280;32503;47.748;8.960;2022-12-18T06:47:23;98081.53;;;-0.62;65.89
3150;BME280;32503;47.748;8.960;2022-12-18T06:49:50;98081.81;;;-0.59;66.12
3150;BME280;32503;47.748;8.960;2022-12-18T06:52:19;98072.50;;;-0.61;66.38
3150;BME280;32503;47.748;8.960;2022-12-18T06:54:46;98079.41;;;-0.60;65.83
3150;BME280;32503;47.748;8.960;2022-12-18T06:57:13;98091.69;;;-0.54;66.20
3150;BME280;32503;47.748;8.960;2022-12-18T06:59:40;98094.59;;;-0.55;66.18
3150;BME280;32503;47.748;8.960;2022-12-18T07:02:11;98108.69;;;-0.55;66.39
3150;BME280;32503;47.748;8.960;2022-12-18T07:04:39;98090.09;;;-0.55;65.84
3150;BME280;32503;47.748;8.960;2022-12-18T07:07:06;98098.88;;;-0.54;66.06
3150;BME280;32503;47.748;8.960;2022-12-18T07:09:34;98112.97;;;-0.54;66.12
3150;BME280;32503;47.748;8.960;2022-12-18T07:12:01;98120.44;;;-0.51;66.09
3150;BME280;32503;47.748;8.960;2022-12-18T07:14:30;98111.91;;;-0.53;66.25
3150;BME280;32503;47.748;8.960;2022-12-18T07:16:57;98115.91;;;-0.50;66.20
3150;BME280;32503;47.748;8.960;2022-12-18T07:19:24;98111.91;;;-0.53;66.38
3150;BME280;32503;47.748;8.960;2022-12-18T07:21:51;98115.16;;;-0.46;65.96
3150;BME280;32503;47.748;8.960;2022-12-18T07:24:18;98118.38;;;-0.44;66.11
3150;BME280;32503;47.748;8.960;2022-12-18T07:26:47;98119.16;;;-0.43;66.41
3150;BME280;32503;47.748;8.960;2022-12-18T07:29:14;98108.78;;;-0.45;66.29
3150;BME280;32503;47.748;8.960;2022-12-18T07:31:42;98112.03;;;-0.38;66.36
3150;BME280;32503;47.748;8.960;2022-12-18T07:34:11;98120.56;;;-0.35;66.31
3150;BME280;32503;47.748;8.960;2022-12-18T07:36:38;98129.66;;;-0.31;66.60
3150;BME280;32503;47.748;8.960;2022-12-18T07:39:05;98125.91;;;-0.30;66.38
3150;BME280;32503;47.748;8.960;2022-12-18T07:41:32;98122.75;;;-0.27;66.24
3150;BME280;32503;47.748;8.960;2022-12-18T07:44:00;98124.91;;;-0.24;66.33
3150;BME280;32503;47.748;8.960;2022-12-18T07:46:28;98128.13;;;-0.22;66.24
3150;BME280;32503;47.748;8.960;2022-12-18T07:48:55;98132.41;;;-0.16;66.20
3150;BME280;32503;47.748;8.960;2022-12-18T07:51:22;98129.25;;;-0.13;66.09
3150;BME280;32503;47.748;8.960;2022-12-18T07:53:49;98130.88;;;-0.12;66.19
3150;BME280;32503;47.748;8.960;2022-12-18T07:56:16;98127.13;;;-0.11;65.96
3150;BME280;32503;47.748;8.960;2022-12-18T07:58:43;98127.72;;;-0.09;65.98
3150;BME280;32503;47.748;8.960;2022-12-18T08:01:14;98130.66;;;-0.05;65.99
3150;BME280;32503;47.748;8.960;2022-12-18T08:03:41;98138.69;;;0.00;65.67
3150;BME280;32503;47.748;8.960;2022-12-18T08:06:09;98135.22;;;-0.01;65.46
3150;BME280;32503;47.748;8.960;2022-12-18T08:08:37;98139.22;;;0.02;65.60
3150;BME280;32503;47.748;8.960;2022-12-18T08:11:04;98151.75;;;0.07;65.79
3150;BME280;32503;47.748;8.960;2022-12-18T08:13:31;98150.66;;;0.03;65.70
3150;BME280;32503;47.748;8.960;2022-12-18T08:16:00;98150.66;;;0.03;65.78
3150;BME280;32503;47.748;8.960;2022-12-18T08:18:28;98160.22;;;-0.02;66.22
3150;BME280;32503;47.748;8.960;2022-12-18T08:21:10;98155.97;;;0.03;66.36
3150;BME280;32503;47.748;8.960;2022-12-18T08:23:37;98157.06;;;0.07;66.28
3150;BME280;32503;47.748;8.960;2022-12-18T08:26:05;98145.94;;;0.10;66.14
3150;BME280;32503;47.748;8.960;2022-12-18T08:28:32;98151.84;;;0.17;65.98
3150;BME280;32503;47.748;8.960;2022-12-18T08:31:00;98152.13;;;0.21;65.89
3150;BME280;32503;47.748;8.960;2022-12-18T08:33:28;98142.28;;;0.16;65.67
3150;BME280;32503;47.748;8.960;2022-12-18T08:35:55;98152.91;;;0.21;65.71
3150;BME280;32503;47.748;8.960;2022-12-18T08:38:22;98156.94;;;0.24;65.64
3150;BME280;32503;47.748;8.960;2022-12-18T08:40:49;98153.22;;;0.25;65.56
3150;BME280;32503;47.748;8.960;2022-12-18T08:43:16;98159.63;;;0.29;65.61
3150;BME280;32503;47.748;8.960;2022-12-18T08:46:01;98159.38;;;0.30;65.42
3150;BME280;32503;47.748;8.960;2022-12-18T08:48:29;98156.72;;;0.30;65.42
3150;BME280;32503;47.748;8.960;2022-12-18T08:50:57;98150.88;;;0.33;65.48
3150;BME280;32503;47.748;8.960;2022-12-18T08:53:25;98149.88;;;0.40;65.29
3150;BME280;32503;47.748;8.960;2022-12-18T08:55:52;98150.94;;;0.44;65.24
3150;BME280;32503;47.748;8.960;2022-12-18T08:58:19;98129.88;;;0.32;64.98
3150;BME280;32503;47.748;8.960;2022-12-18T09:00:46;98142.44;;;0.42;65.18
3150;BME280;32503;47.748;8.960;2022-12-18T09:03:14;98140.31;;;0.44;65.21
3150;BME280;32503;47.748;8.960;2022-12-18T09:05:43;98144.63;;;0.50;65.41
3150;BME280;32503;47.748;8.960;2022-12-18T09:08:12;98131.84;;;0.52;65.02
3150;BME280;32503;47.748;8.960;2022-12-18T09:10:42;98134.03;;;0.60;64.77
3150;BME280;32503;47.748;8.960;2022-12-18T09:13:10;98134.03;;;0.65;64.95
3150;BME280;32503;47.748;8.960;2022-12-18T09:15:41;98126.06;;;0.65;64.92
3150;BME280;32503;47.748;8.960;2022-12-18T09:18:08;98128.75;;;0.70;64.65
3150;BME280;32503;47.748;8.960;2022-12-18T09:20:36;98116.22;;;0.66;65.00
3150;BME280;32503;47.748;8.960;2022-12-18T09:23:05;98130.63;;;0.75;64.96
3150;BME280;32503;47.748;8.960;2022-12-18T09:25:33;98128.22;;;0.73;64.93
3150;BME280;32503;47.748;8.960;2022-12-18T09:28:01;98128.44;;;0.62;65.06
3150;BME280;32503;47.748;8.960;2022-12-18T09:30:29;98132.94;;;0.56;65.50
3150;BME280;32503;47.748;8.960;2022-12-18T09:32:56;98140.94;;;0.61;65.69
3150;BME280;32503;47.748;8.960;2022-12-18T09:35:23;98139.09;;;0.67;65.31
3150;BME280;32503;47.748;8.960;2022-12-18T09:37:50;98144.16;;;0.68;65.31
3150;BME280;32503;47.748;8.960;2022-12-18T09:40:23;98138.31;;;0.66;65.28
3150;BME280;32503;47.748;8.960;2022-12-18T09:42:55;98149.28;;;0.75;65.40
3150;BME280;32503;47.748;8.960;2022-12-18T09:45:24;98145.81;;;0.74;65.40
3150;BME280;32503;47.748;8.960;2022-12-18T09:47:53;98135.16;;;0.74;65.87
3150;BME280;32503;47.748;8.960;2022-12-18T09:50:28;98135.22;;;0.85;65.97
3150;BME280;32503;47.748;8.960;2022-12-18T09:52:59;98140.28;;;0.91;66.00
3150;BME280;32503;47.748;8.960;2022-12-18T09:55:34;98132.59;;;1.00;65.08
3150;BME280;32503;47.748;8.960;2022-12-18T09:58:06;98134.44;;;0.94;64.55
3150;BME280;32503;47.748;8.960;2022-12-18T10:00:34;98142.69;;;0.93;64.58
3150;BME280;32503;47.748;8.960;2022-12-18T10:03:09;98139.50;;;0.91;64.42
3150;BME280;32503;47.748;8.960;2022-12-18T10:05:42;98137.06;;;0.84;64.92
3150;BME280;32503;47.748;8.960;2022-12-18T10:08:17;98136.28;;;0.89;64.97
3150;BME280;32503;47.748;8.960;2022-12-18T10:10:51;98140.53;;;0.85;64.37
3150;BME280;32503;47.748;8.960;2022-12-18T10:13:26;98142.63;;;0.72;64.50
3150;BME280;32503;47.748;8.960;2022-12-18T10:16:11;98110.84;;;0.13;64.97
3150;BME280;32503;47.748;8.960;2022-12-18T10:19:05;98138.16;;;0.35;65.47
3150;BME280;32503;47.748;8.960;2022-12-18T10:21:42;98149.50;;;0.26;66.08
3150;BME280;32503;47.748;8.960;2022-12-18T10:24:20;98140.47;;;-0.06;67.31
3150;BME280;32503;47.748;8.960;2022-12-18T10:26:53;98141.47;;;0.21;66.66
3150;BME280;32503;47.748;8.960;2022-12-18T10:29:24;98149.03;;;0.34;66.49
3150;BME280;32503;47.748;8.960;2022-12-18T10:31:51;98135.28;;;0.47;66.46
3150;BME280;32503;47.748;8.960;2022-12-18T10:34:18;98140.97;;;0.66;66.19
3150;BME280;32503;47.748;8.960;2022-12-18T10:36:47;98144.19;;;0.73;65.78
3150;BME280;32503;47.748;8.960;2022-12-18T10:39:17;98148.22;;;0.81;65.65
3150;BME280;32503;47.748;8.960;2022-12-18T10:41:45;98143.22;;;0.90;65.59
3150;BME280;32503;47.748;8.960;2022-12-18T10:44:18;98128.06;;;0.90;65.31
3150;BME280;32503;47.748;8.960;2022-12-18T10:46:46;98148.63;;;1.10;65.40
3150;BME280;32503;47.748;8.960;2022-12-18T10:49:25;98141.19;;;1.18;65.28
3150;BME280;32503;47.748;8.960;2022-12-18T10:52:07;98142.25;;;1.22;64.90
3150;BME280;32503;47.748;8.960;2022-12-18T10:54:35;98083.56;;;0.86;64.02
3150;BME280;32503;47.748;8.960;2022-12-18T10:57:17;98146.03;;;1.26;63.52
3150;BME280;32503;47.748;8.960;2022-12-18T10:59:58;98119.84;;;1.12;63.05
3150;BME280;32503;47.748;8.960;2022-12-18T11:02:33;98121.47;;;1.13;62.99
3150;BME280;32503;47.748;8.960;2022-12-18T11:05:01;98142.31;;;1.37;62.77
3150;BME280;32503;47.748;8.960;2022-12-18T11:07:48;98147.41;;;1.44;62.75
3150;BME280;32503;47.748;8.960;2022-12-18T11:10:18;98127.41;;;1.41;62.88
3150;BME280;32503;47.748;8.960;2022-12-18T11:12:45;98097.56;;;1.29;62.75
3150;BME280;32503;47.748;8.960;2022-12-18T11:15:21;98121.81;;;1.48;63.03
3150;BME280;32503;47.748;8.960;2022-12-18T11:17:50;98127.41;;;1.51;62.67
3150;BME280;32503;47.748;8.960;2022-12-18T11:20:29;98104.50;;;1.40;62.86
3150;BME280;32503;47.748;8.960;2022-12-18T11:23:00;98132.50;;;1.58;62.79
3150;BME280;32503;47.748;8.960;2022-12-18T11:25:31;98082.09;;;1.31;62.44
3150;BME280;32503;47.748;8.960;2022-12-18T11:28:01;98122.09;;;1.41;62.21
3150;BME280;32503;47.748;8.960;2022-12-18T11:30:32;98113.53;;;1.34;62.41
3150;BME280;32503;47.748;8.960;2022-12-18T11:33:04;98120.47;;;1.40;62.58
3150;BME280;32503;47.748;8.960;2022-12-18T11:35:40;98113.00;;;1.42;62.11
3150;BME280;32503;47.748;8.960;2022-12-18T11:38:20;98105.03;;;1.47;62.40
3150;BME280;32503;47.748;8.960;2022-12-18T11:40:55;98091.94;;;1.41;62.33
3150;BME280;32503;47.748;8.960;2022-12-18T11:43:28;98075.44;;;1.39;61.84
3150;BME280;32503;47.748;8.960;2022-12-18T11:46:02;98094.31;;;1.11;62.91
3150;BME280;32503;47.748;8.960;2022-12-18T11:48:37;98097.53;;;1.24;62.50
3150;BME280;32503;47.748;8.960;2022-12-18T11:51:14;98093.53;;;1.26;62.57
3150;BME280;32503;47.748;8.960;2022-12-18T11:53:47;98093.28;;;1.33;62.33
3150;BME280;32503;47.748;8.960;2022-12-18T11:56:30;98088.75;;;1.33;62.79
3150;BME280;32503;47.748;8.960;2022-12-18T11:59:08;98088.19;;;1.26;62.60
3150;BME280;32503;47.748;8.960;2022-12-18T12:01:46;98076.19;;;1.08;62.72
3150;BME280;32503;47.748;8.960;2022-12-18T12:07:40;98083.09;;;1.09;64.07
3150;BME280;32503;47.748;8.960;2022-12-18T12:10:26;98092.94;;;1.09;63.60
3150;BME280;32503;47.748;8.960;2022-12-18T12:13:12;98093.47;;;1.06;64.22
3150;BME280;32503;47.748;8.960;2022-12-18T12:15:54;98093.44;;;0.90;64.32
3150;BME280;32503;47.748;8.960;2022-12-18T12:18:40;98093.69;;;0.89;63.95
3150;BME280;32503;47.748;8.960;2022-12-18T12:21:16;98092.91;;;0.99;63.60
3150;BME280;32503;47.748;8.960;2022-12-18T12:23:53;98084.94;;;1.04;63.59
3150;BME280;32503;47.748;8.960;2022-12-18T12:26:32;98082.53;;;1.02;63.15
3150;BME280;32503;47.748;8.960;2022-12-18T12:29:10;98075.34;;;0.98;63.72
3150;BME280;32503;47.748;8.960;2022-12-18T12:32:00;98060.41;;;0.91;64.16
3150;BME280;32503;47.748;8.960;2022-12-18T12:34:38;98066.56;;;1.07;64.06
3150;BME280;32503;47.748;8.960;2022-12-18T12:37:23;98065.28;;;1.15;63.21
3150;BME280;32503;47.748;8.960;2022-12-18T12:39:55;98065.94;;;0.69;64.37
3150;BME280;32503;47.748;8.960;2022-12-18T12:42:31;98069.69;;;0.79;64.08
3150;BME280;32503;47.748;8.960;2022-12-18T12:45:24;98042.75;;;0.70;64.17
3150;BME280;32503;47.748;8.960;2022-12-18T12:47:54;98068.94;;;0.88;64.32
3150;BME280;32503;47.748;8.960;2022-12-18T12:50:26;98068.38;;;0.86;64.54
3150;BME280;32503;47.748;8.960;2022-12-18T12:52:55;98052.66;;;0.80;64.70
3150;BME280;32503;47.748;8.960;2022-12-18T12:55:26;98062.56;;;0.94;64.58
3150;BME280;32503;47.748;8.960;2022-12-18T12:58:01;98063.09;;;0.97;64.59
3150;BME280;32503;47.748;8.960;2022-12-18T13:00:33;98030.28;;;0.75;64.40
3150;BME280;32503;47.748;8.960;2022-12-18T13:03:11;98065.78;;;1.07;64.45
3150;BME280;32503;47.748;8.960;2022-12-18T13:05:48;98063.38;;;1.10;64.46
3150;BME280;32503;47.748;8.960;2022-12-18T13:08:24;98058.84;;;1.01;64.38
3150;BME280;32503;47.748;8.960;2022-12-18T13:10:53;97980.38;;;0.40;64.36
3150;BME280;32503;47.748;8.960;2022-12-18T13:13:49;98058.50;;;0.77;64.18
3150;BME280;32503;47.748;8.960;2022-12-18T13:16:20;98047.84;;;0.77;64.06
3150;BME280;32503;47.748;8.960;2022-12-18T13:18:50;98062.03;;;0.98;64.11
3150;BME280;32503;47.748;8.960;2022-12-18T13:21:24;98046.28;;;0.91;63.73
3150;BME280;32503;47.748;8.960;2022-12-18T13:23:53;98057.53;;;1.13;63.81
3150;BME280;32503;47.748;8.960;2022-12-18T13:26:32;98067.69;;;1.27;64.06
3150;BME280;32503;47.748;8.960;2022-12-18T13:29:00;98066.38;;;1.29;64.32
3150;BME280;32503;47.748;8.960;2022-12-18T13:32:20;98069.81;;;1.30;63.90
3150;BME280;32503;47.748;8.960;2022-12-18T13:34:48;98073.03;;;1.32;63.17
3150;BME280;32503;47.748;8.960;2022-12-18T13:37:53;98065.56;;;1.39;63.42
3150;BME280;32503;47.748;8.960;2022-12-18T13:40:54;98054.91;;;1.39;63.26